Time;durP1;ratioP1;P1;durP2;ratioP2;P2;SDS_P1;SDS_P2;PMS_P1;PMS_P2;Temp;Humidity;BMP_temperature;BMP_pressure;BME280_temperature;BME280_humidity;BME280_pressure;Samples;Min_cycle;Max_cycle;Signal;HPM_P1;HPM_P2
2021/10/21 00:01:18;;;;;;;6.87;6.17;;;;;;;14.71;100.00;95564.41;5074592;28;20227;-67
2021/10/21 00:03:44;;;;;;;7.37;6.67;;;;;;;14.72;100.00;95568.63;5064617;28;20169;-67
2021/10/21 00:06:09;;;;;;;9.20;7.43;;;;;;;14.78;100.00;95567.50;5076054;28;20204;-67
2021/10/21 00:08:35;;;;;;;8.20;7.50;;;;;;;14.78;100.00;95550.91;5064604;28;20568;-68
2021/10/21 00:11:02;;;;;;;9.53;7.23;;;;;;;14.77;100.00;95538.78;5056366;28;20193;-68
2021/10/21 00:13:27;;;;;;;7.43;6.73;;;;;;;15.04;100.00;95532.91;5056386;28;20170;-69
2021/10/21 00:15:53;;;;;;;9.00;8.00;;;;;;;14.96;100.00;95534.31;5055914;28;20206;-69
2021/10/21 00:18:19;;;;;;;10.43;8.10;;;;;;;14.96;100.00;95536.94;5055469;28;20226;-69
2021/10/21 00:20:44;;;;;;;9.57;8.67;;;;;;;15.07;100.00;95537.59;5067189;28;20625;-67
2021/10/21 00:23:10;;;;;;;9.20;8.40;;;;;;;14.86;100.00;95522.03;5076026;28;20218;-68
2021/10/21 00:25:35;;;;;;;8.97;8.13;;;;;;;14.93;100.00;95524.34;5075748;28;20203;-69
2021/10/21 00:28:01;;;;;;;8.93;8.03;;;;;;;14.96;100.00;95524.53;5075744;28;20161;-69
2021/10/21 00:30:27;;;;;;;9.17;8.00;;;;;;;14.93;100.00;95522.47;5075894;28;20162;-69
2021/10/21 00:32:52;;;;;;;9.33;8.40;;;;;;;14.80;100.00;95520.53;5075708;28;20583;-68
2021/10/21 00:35:18;;;;;;;11.73;8.90;;;;;;;14.84;100.00;95503.06;5075923;28;20228;-69
2021/10/21 00:37:44;;;;;;;9.07;8.07;;;;;;;14.63;100.00;95485.94;5075478;28;20350;-69
2021/10/21 00:40:10;;;;;;;9.67;8.73;;;;;;;14.42;100.00;95480.16;5075594;28;20223;-69
2021/10/21 00:42:36;;;;;;;10.03;9.03;;;;;;;14.41;100.00;95494.41;5076049;28;20534;-69
2021/10/21 00:45:02;;;;;;;9.20;8.07;;;;;;;14.47;100.00;95493.28;5074703;28;20201;-69
2021/10/21 00:47:28;;;;;;;13.03;10.00;;;;;;;14.45;100.00;95482.22;5075610;28;20642;-69
2021/10/21 00:49:53;;;;;;;11.60;8.70;;;;;;;14.43;100.00;95481.69;5075388;28;20209;-68
2021/10/21 00:52:19;;;;;;;12.27;8.77;;;;;;;14.42;100.00;95474.09;5075344;28;20185;-68
2021/10/21 00:54:46;;;;;;;10.33;8.50;;;;;;;14.33;100.00;95463.34;5075092;28;20550;-69
2021/10/21 00:57:13;;;;;;;11.67;9.17;;;;;;;14.43;100.00;95462.47;5072955;28;20325;-69
2021/10/21 00:59:41;;;;;;;13.50;9.37;;;;;;;14.41;100.00;95456.69;5074650;28;20196;-69
2021/10/21 01:02:07;;;;;;;13.17;8.80;;;;;;;14.49;100.00;95451.56;5072866;28;20591;-69
2021/10/21 01:04:34;;;;;;;12.17;9.03;;;;;;;14.44;100.00;95441.09;5064019;28;20208;-69
2021/10/21 01:07:01;;;;;;;11.90;9.10;;;;;;;14.33;100.00;95436.97;5075179;28;20231;-69
2021/10/21 01:09:27;;;;;;;12.47;9.03;;;;;;;13.99;100.00;95431.06;5058903;28;20170;-69
2021/10/21 01:11:52;;;;;;;12.97;9.13;;;;;;;14.07;100.00;95422.56;5054923;28;20280;-69
2021/10/21 01:14:19;;;;;;;11.10;8.30;;;;;;;14.11;100.00;95416.44;5054754;28;20194;-69
2021/10/21 01:16:45;;;;;;;12.27;8.80;;;;;;;14.12;100.00;95404.84;5054886;28;20282;-68
2021/10/21 01:19:23;;;;;;;12.90;8.43;;;;;;;14.09;100.00;95396.72;5054285;28;20162;-69
2021/10/21 01:21:51;;;;;;;17.00;9.00;;;;;;;13.90;100.00;95387.97;5072607;28;20169;-69
2021/10/21 01:24:17;;;;;;;12.30;9.03;;;;;;;13.96;100.00;95400.81;5074585;28;20677;-69
2021/10/21 01:26:44;;;;;;;9.87;8.13;;;;;;;13.77;100.00;95402.59;5073388;28;20205;-69
2021/10/21 01:29:10;;;;;;;12.73;9.60;;;;;;;13.82;100.00;95402.53;5074458;28;20240;-69
2021/10/21 01:31:38;;;;;;;15.40;9.23;;;;;;;13.76;100.00;95397.63;5074435;28;20188;-69
2021/10/21 01:34:07;;;;;;;10.27;8.97;;;;;;;13.66;100.00;95390.59;5074396;28;20165;-69
2021/10/21 01:36:32;;;;;;;13.20;9.53;;;;;;;13.66;100.00;95380.06;5074217;28;20212;-69
2021/10/21 01:38:58;;;;;;;10.60;8.50;;;;;;;13.72;100.00;95373.69;5074518;28;20161;-70
2021/10/21 01:41:23;;;;;;;10.67;8.63;;;;;;;13.80;100.00;95364.41;5074388;28;20192;-70
2021/10/21 01:43:49;;;;;;;12.33;8.60;;;;;;;13.82;100.00;95349.88;5074294;28;20177;-69
2021/10/21 01:46:14;;;;;;;10.43;9.30;;;;;;;13.88;100.00;95335.56;5073995;28;20571;-69
2021/10/21 01:48:40;;;;;;;12.77;9.70;;;;;;;13.60;100.00;95326.69;5074296;28;20185;-69
2021/10/21 01:51:05;;;;;;;16.90;9.30;;;;;;;13.68;100.00;95314.78;5074178;28;20172;-69
2021/10/21 01:53:31;;;;;;;12.13;8.50;;;;;;;13.67;100.00;95290.28;5074082;28;20227;-69
2021/10/21 01:55:56;;;;;;;12.20;8.57;;;;;;;13.57;100.00;95305.41;5071836;28;20264;-69
2021/10/21 01:58:22;;;;;;;11.53;9.07;;;;;;;13.53;100.00;95288.63;5072788;28;20205;-69
2021/10/21 02:00:47;;;;;;;10.00;8.27;;;;;;;13.48;100.00;95297.38;5073485;28;20251;-69
2021/10/21 02:03:13;;;;;;;13.10;8.93;;;;;;;13.57;100.00;95294.88;5064889;28;20178;-70
2021/10/21 02:05:38;;;;;;;11.13;9.00;;;;;;;13.74;100.00;95271.50;5068380;28;20208;-70
2021/10/21 02:08:04;;;;;;;11.90;8.93;;;;;;;13.71;100.00;95274.69;5071434;28;20582;-70
2021/10/21 02:10:29;;;;;;;11.83;8.13;;;;;;;13.64;100.00;95256.63;5054216;28;20202;-70
2021/10/21 02:12:56;;;;;;;10.00;7.77;;;;;;;13.63;100.00;95255.06;5053715;28;20173;-70
2021/10/21 02:15:21;;;;;;;8.57;7.60;;;;;;;13.77;100.00;95255.13;5053427;28;20198;-70
2021/10/21 02:17:47;;;;;;;9.27;7.83;;;;;;;13.86;100.00;95245.53;5053661;28;20202;-71
2021/10/21 02:20:14;;;;;;;9.60;7.00;;;;;;;13.75;100.00;95238.84;5055635;28;20644;-70
2021/10/21 02:22:41;;;;;;;9.80;7.60;;;;;;;13.65;100.00;95215.28;5072308;28;20173;-70
2021/10/21 02:25:08;;;;;;;8.63;7.37;;;;;;;13.72;100.00;95218.34;5073658;28;20326;-70
2021/10/21 02:27:33;;;;;;;10.43;7.67;;;;;;;13.64;100.00;95197.94;5073602;28;20165;-70
2021/10/21 02:29:59;;;;;;;10.20;7.40;;;;;;;13.68;100.00;95204.19;5073574;28;20166;-70
2021/10/21 02:32:24;;;;;;;9.17;7.00;;;;;;;13.76;100.00;95210.66;5073603;28;20172;-70
2021/10/21 02:34:50;;;;;;;7.27;6.57;;;;;;;13.82;100.00;95214.81;5073215;28;20197;-70
2021/10/21 02:37:15;;;;;;;7.67;6.47;;;;;;;13.91;100.00;95229.66;5073262;28;20208;-70
2021/10/21 02:39:41;;;;;;;7.93;6.43;;;;;;;13.88;100.00;95234.69;5073609;28;20630;-70
2021/10/21 02:42:06;;;;;;;14.00;7.40;;;;;;;13.93;100.00;95227.50;5073301;28;20170;-70
2021/10/21 02:44:32;;;;;;;8.83;7.33;;;;;;;13.96;100.00;95216.41;5073316;28;20626;-70
2021/10/21 02:46:57;;;;;;;8.00;7.20;;;;;;;14.06;100.00;95221.53;5073034;28;20264;-70
2021/10/21 02:49:23;;;;;;;10.30;7.27;;;;;;;14.08;100.00;95229.16;5073239;28;20191;-70
2021/10/21 02:51:49;;;;;;;9.17;7.30;;;;;;;14.14;100.00;95217.47;5073167;28;20261;-70
2021/10/21 02:54:14;;;;;;;8.27;7.10;;;;;;;14.17;100.00;95206.34;5073060;28;20201;-69
2021/10/21 02:56:39;;;;;;;11.03;6.97;;;;;;;14.05;100.00;95190.97;5070753;28;20237;-70
2021/10/21 02:59:05;;;;;;;7.23;6.53;;;;;;;14.01;100.00;95178.69;5072654;28;20291;-70
2021/10/21 03:01:30;;;;;;;8.57;6.90;;;;;;;13.96;100.00;95181.38;5073196;28;20540;-70
2021/10/21 03:03:58;;;;;;;7.73;6.03;;;;;;;13.95;100.00;95195.63;5060238;28;20553;-69
2021/10/21 03:06:23;;;;;;;8.67;5.93;;;;;;;14.09;100.00;95205.16;5072689;28;20176;-70
2021/10/21 03:08:49;;;;;;;6.67;5.67;;;;;;;14.12;100.00;95198.53;5066437;28;20174;-70
2021/10/21 03:11:14;;;;;;;7.30;5.87;;;;;;;14.08;100.00;95205.44;5053095;28;20170;-70
2021/10/21 03:13:40;;;;;;;6.87;6.10;;;;;;;13.98;100.00;95195.06;5053241;28;20174;-70
2021/10/21 03:16:05;;;;;;;7.67;5.07;;;;;;;14.04;100.00;95217.63;5052756;28;20279;-70
2021/10/21 03:18:31;;;;;;;5.90;5.30;;;;;;;14.02;100.00;95217.13;5052253;28;20200;-69
2021/10/21 03:20:56;;;;;;;5.77;5.27;;;;;;;14.02;100.00;95225.81;5058824;28;20218;-70
2021/10/21 03:23:24;;;;;;;6.00;5.00;;;;;;;14.09;100.00;95234.16;5073198;28;20169;-70
2021/10/21 03:25:50;;;;;;;5.73;5.13;;;;;;;14.15;100.00;95232.22;5072918;28;20572;-70
2021/10/21 03:28:16;;;;;;;7.60;5.77;;;;;;;14.24;100.00;95234.97;5073201;28;20162;-70
2021/10/21 03:30:42;;;;;;;7.40;6.70;;;;;;;14.25;100.00;95258.41;5073024;28;20173;-70
2021/10/21 03:33:07;;;;;;;7.00;5.53;;;;;;;14.26;100.00;95261.84;5072809;28;20165;-70
2021/10/21 03:35:33;;;;;;;5.90;4.80;;;;;;;14.22;100.00;95252.91;5072548;28;20739;-70
2021/10/21 03:37:58;;;;;;;4.23;3.93;;;;;;;14.14;100.00;95249.09;5073111;28;20208;-70
2021/10/21 03:40:24;;;;;;;5.47;4.97;;;;;;;14.16;100.00;95247.72;5072579;28;20170;-70
2021/10/21 03:42:49;;;;;;;3.50;3.23;;;;;;;14.05;100.00;95251.56;5072822;28;20185;-70
2021/10/21 03:45:15;;;;;;;3.27;3.07;;;;;;;14.03;100.00;95239.78;5072657;28;20246;-70
2021/10/21 03:47:40;;;;;;;3.70;3.50;;;;;;;13.93;100.00;95247.81;5072552;28;20522;-70
2021/10/21 03:50:06;;;;;;;3.37;3.17;;;;;;;13.98;100.00;95245.91;5072671;28;20181;-70
2021/10/21 03:52:33;;;;;;;4.63;3.50;;;;;;;13.96;100.00;95244.63;5072525;28;20256;-70
2021/10/21 03:54:58;;;;;;;2.70;2.50;;;;;;;13.95;100.00;95249.09;5071167;28;20209;-70
2021/10/21 03:57:24;;;;;;;2.23;2.07;;;;;;;13.95;100.00;95259.63;5071531;28;20701;-70
2021/10/21 03:59:49;;;;;;;5.57;2.17;;;;;;;13.96;100.00;95271.75;5072207;28;20219;-70
2021/10/21 04:02:15;;;;;;;2.00;1.90;;;;;;;14.05;100.00;95269.22;5072245;28;20180;-69
2021/10/21 04:04:40;;;;;;;2.10;2.00;;;;;;;13.98;100.00;95268.81;5059572;28;20216;-70
2021/10/21 04:07:06;;;;;;;1.23;1.23;;;;;;;13.96;100.00;95284.13;5072721;28;20169;-70
2021/10/21 04:09:31;;;;;;;2.80;1.67;;;;;;;13.99;100.00;95286.19;5062745;28;20170;-70
2021/10/21 04:11:57;;;;;;;2.23;1.17;;;;;;;13.96;98.24;95297.28;5052651;28;20174;-69
2021/10/21 04:14:22;;;;;;;1.10;1.10;;;;;;;13.92;98.39;95305.00;5052313;28;20280;-70
2021/10/21 04:16:48;;;;;;;1.37;1.00;;;;;;;13.82;96.96;95299.84;5052308;28;20274;-70
2021/10/21 04:19:13;;;;;;;0.80;0.80;;;;;;;13.89;95.64;95313.44;5051843;28;20217;-70
2021/10/21 04:21:39;;;;;;;0.80;0.80;;;;;;;13.79;94.08;95310.94;5064431;28;20181;-69
2021/10/21 04:24:04;;;;;;;1.17;0.90;;;;;;;13.81;94.34;95316.72;5075995;28;20169;-70
2021/10/21 04:26:30;;;;;;;0.80;0.80;;;;;;;13.73;90.68;95318.13;5075976;28;20622;-69
2021/10/21 04:28:55;;;;;;;1.00;0.90;;;;;;;13.68;88.75;95335.84;5075962;28;20193;-70
2021/10/21 04:31:21;;;;;;;2.30;0.70;;;;;;;13.68;86.09;95333.19;5075756;28;20166;-70
2021/10/21 04:33:46;;;;;;;1.80;0.83;;;;;;;13.60;82.04;95341.69;5075905;28;20165;-71
2021/10/21 04:36:12;;;;;;;1.13;1.00;;;;;;;13.63;83.92;95360.38;5075861;28;20193;-70
2021/10/21 04:38:38;;;;;;;0.90;0.90;;;;;;;13.56;82.21;95370.44;5075682;28;20556;-69
2021/10/21 04:41:03;;;;;;;2.83;1.00;;;;;;;13.54;81.97;95363.91;5075605;28;20200;-69
2021/10/21 04:43:29;;;;;;;0.70;0.70;;;;;;;13.45;79.31;95381.34;5074180;28;20185;-69
2021/10/21 04:45:54;;;;;;;0.60;0.60;;;;;;;13.37;79.76;95395.94;5075096;28;20685;-69
2021/10/21 04:48:20;;;;;;;0.60;0.60;;;;;;;13.42;78.64;95397.72;5075382;28;20517;-69
2021/10/21 04:50:45;;;;;;;0.70;0.70;;;;;;;13.41;79.08;95409.31;5075285;28;20657;-69
2021/10/21 04:53:11;;;;;;;3.63;0.77;;;;;;;13.27;77.48;95414.41;5075297;28;20177;-69
2021/10/21 04:55:37;;;;;;;1.23;0.73;;;;;;;13.16;76.56;95418.97;5072920;28;20565;-70
2021/10/21 04:58:04;;;;;;;2.03;0.93;;;;;;;13.21;75.86;95437.34;5074538;28;20201;-70
2021/10/21 05:00:30;;;;;;;0.93;0.60;;;;;;;13.02;72.44;95417.25;5075068;28;20162;-73
2021/10/21 05:02:56;;;;;;;3.23;0.60;;;;;;;12.98;71.88;95408.34;5072850;28;20181;-71
2021/10/21 05:05:22;;;;;;;1.17;0.70;;;;;;;12.97;70.22;95428.59;5063364;28;20201;-71
2021/10/21 05:07:47;;;;;;;2.03;0.70;;;;;;;13.06;69.72;95426.16;5075006;28;20176;-70
2021/10/21 05:10:13;;;;;;;1.63;0.83;;;;;;;12.98;69.91;95419.66;5061904;28;20575;-71
2021/10/21 05:12:39;;;;;;;2.20;0.70;;;;;;;12.86;69.27;95445.50;5054874;28;20237;-71
2021/10/21 05:15:06;;;;;;;1.57;0.73;;;;;;;12.82;69.46;95455.75;5054557;28;20284;-70
2021/10/21 05:17:32;;;;;;;2.10;0.80;;;;;;;12.78;69.25;95449.47;5054538;28;20565;-70
2021/10/21 05:19:57;;;;;;;0.70;0.70;;;;;;;12.76;69.71;95456.09;5054556;28;20253;-69
2021/10/21 05:22:23;;;;;;;3.13;0.93;;;;;;;12.71;69.47;95456.09;5067536;28;20256;-70
2021/10/21 05:24:48;;;;;;;1.53;0.97;;;;;;;12.68;68.57;95451.41;5074291;28;20207;-70
2021/10/21 05:27:14;;;;;;;1.57;0.70;;;;;;;12.74;69.16;95458.19;5074650;28;20189;-70
2021/10/21 05:29:39;;;;;;;1.87;0.90;;;;;;;12.66;67.91;95454.28;5074528;28;20196;-70
2021/10/21 05:32:08;;;;;;;2.77;0.77;;;;;;;12.58;68.94;95468.00;5072935;28;20223;-72
2021/10/21 05:34:35;;;;;;;1.90;0.70;;;;;;;12.66;68.32;95471.91;5073123;28;20205;-71
2021/10/21 05:37:01;;;;;;;1.10;0.80;;;;;;;12.63;68.74;95469.81;5074136;28;20312;-71
2021/10/21 05:39:29;;;;;;;1.23;0.80;;;;;;;12.80;69.08;95480.78;5072977;28;20169;-71
2021/10/21 05:41:55;;;;;;;1.47;0.77;;;;;;;12.90;69.61;95494.63;5074233;28;20637;-71
2021/10/21 05:44:20;;;;;;;1.27;1.00;;;;;;;12.76;70.88;95472.63;5074176;28;20193;-70
2021/10/21 05:46:48;;;;;;;3.57;0.80;;;;;;;12.51;70.99;95485.91;5074322;28;20250;-73
2021/10/21 05:49:14;;;;;;;1.47;0.70;;;;;;;12.53;71.10;95494.31;5074283;28;20231;-68
2021/10/21 05:51:39;;;;;;;7.97;0.93;;;;;;;12.55;71.28;95468.53;5074769;28;20255;-71
2021/10/21 05:54:04;;;;;;;0.70;0.70;;;;;;;12.38;70.43;95502.25;5076490;28;20549;-71
2021/10/21 05:56:30;;;;;;;2.20;0.93;;;;;;;12.39;69.92;95494.09;5076164;28;20240;-71
2021/10/21 05:58:55;;;;;;;3.60;0.93;;;;;;;12.44;69.15;95504.59;5063372;28;20185;-71
2021/10/21 06:01:22;;;;;;;1.47;0.73;;;;;;;12.30;69.01;95518.59;5054393;28;20510;-75
2021/10/21 06:03:47;;;;;;;1.63;1.00;;;;;;;12.29;67.81;95512.53;5056355;28;20609;-69
2021/10/21 06:06:13;;;;;;;4.57;1.30;;;;;;;12.31;68.24;95534.09;5060789;28;20204;-69
2021/10/21 06:08:38;;;;;;;4.80;1.13;;;;;;;12.31;67.74;95534.09;5053410;28;20541;-70
2021/10/21 06:11:04;;;;;;;1.97;1.00;;;;;;;12.38;67.83;95536.41;5071442;28;20541;-70
2021/10/21 06:13:34;;;;;;;2.00;0.93;;;;;;;12.32;67.80;95546.16;5073626;28;20158;-69
2021/10/21 06:16:00;;;;;;;1.90;1.40;;;;;;;12.29;67.82;95559.84;5073562;28;20197;-69
2021/10/21 06:18:26;;;;;;;0.60;0.60;;;;;;;12.35;68.04;95556.16;5073124;28;20181;-70
2021/10/21 06:20:51;;;;;;;5.27;0.93;;;;;;;12.37;67.70;95567.16;5073877;28;20575;-69
2021/10/21 06:23:17;;;;;;;2.90;0.87;;;;;;;12.49;68.14;95566.84;5055495;28;20188;-69
2021/10/21 06:25:42;;;;;;;2.33;0.90;;;;;;;12.56;67.74;95577.09;5053380;28;20297;-68
2021/10/21 06:28:08;;;;;;;1.70;1.00;;;;;;;12.41;67.30;95568.22;5053893;28;20162;-68
2021/10/21 06:30:36;;;;;;;2.90;1.00;;;;;;;12.36;68.25;95584.00;5070797;28;20181;-68
2021/10/21 06:33:03;;;;;;;2.40;1.30;;;;;;;12.31;67.47;95589.28;5067668;28;20170;-73
2021/10/21 06:35:29;;;;;;;6.87;1.20;;;;;;;12.24;67.39;95574.81;5059268;28;20407;-69
2021/10/21 06:37:55;;;;;;;1.97;1.10;;;;;;;12.23;67.49;95587.16;5054343;28;20198;-68
2021/10/21 06:40:20;;;;;;;4.27;0.90;;;;;;;12.31;67.34;95580.59;5054175;28;20324;-68
2021/10/21 06:42:46;;;;;;;3.33;0.97;;;;;;;12.30;67.36;95565.88;5052689;28;20186;-68
2021/10/21 06:45:11;;;;;;;1.97;0.80;;;;;;;12.26;66.08;95565.59;5061151;28;20193;-68
2021/10/21 06:47:39;;;;;;;2.60;1.30;;;;;;;12.26;66.34;95581.38;5067877;28;20188;-67
2021/10/21 06:50:05;;;;;;;8.43;1.17;;;;;;;12.30;66.29;95586.91;5058068;28;20193;-68
2021/10/21 06:52:30;;;;;;;3.47;0.90;;;;;;;12.42;65.46;95555.88;5072947;28;20235;-68
2021/10/21 06:54:56;;;;;;;2.00;0.97;;;;;;;12.44;64.78;95569.50;5064115;28;20614;-68
2021/10/21 06:57:21;;;;;;;3.37;1.00;;;;;;;12.53;64.90;95585.53;5069335;28;20216;-67
2021/10/21 06:59:47;;;;;;;2.40;0.90;;;;;;;12.53;64.88;95588.94;5071639;28;20219;-67
2021/10/21 07:02:14;;;;;;;4.97;1.20;;;;;;;12.58;64.08;95599.44;5061989;28;20169;-69
2021/10/21 07:04:39;;;;;;;1.20;0.67;;;;;;;12.64;63.39;95603.63;5052481;28;20662;-67
2021/10/21 07:07:05;;;;;;;3.03;0.90;;;;;;;12.73;62.47;95601.22;5055922;28;20206;-67
2021/10/21 07:09:30;;;;;;;4.00;0.93;;;;;;;12.77;61.90;95568.06;5052849;28;20245;-67
2021/10/21 07:11:56;;;;;;;1.87;0.63;;;;;;;12.77;61.65;95629.31;5066815;28;20173;-67
2021/10/21 07:14:21;;;;;;;3.23;0.97;;;;;;;12.80;61.80;95631.44;5072017;28;20246;-67
2021/10/21 07:16:46;;;;;;;3.97;0.70;;;;;;;12.82;61.42;95649.56;5070996;28;20205;-67
2021/10/21 07:19:12;;;;;;;1.83;0.80;;;;;;;12.93;61.14;95665.03;5070029;28;20166;-67
2021/10/21 07:21:38;;;;;;;0.63;0.50;;;;;;;13.12;61.27;95672.38;5065321;28;20181;-67
2021/10/21 07:24:04;;;;;;;1.50;0.70;;;;;;;13.04;60.89;95678.19;5070541;28;20299;-68
2021/10/21 07:26:29;;;;;;;2.90;1.10;;;;;;;12.96;61.48;95692.66;5071197;28;20224;-67
2021/10/21 07:28:55;;;;;;;2.27;0.70;;;;;;;13.05;61.44;95708.66;5059486;28;20178;-67
2021/10/21 07:31:21;;;;;;;2.20;0.67;;;;;;;12.93;60.36;95714.22;5061140;28;20212;-67
2021/10/21 07:33:47;;;;;;;1.47;0.80;;;;;;;12.88;60.55;95733.44;5066560;28;20197;-67
2021/10/21 07:36:13;;;;;;;2.37;0.73;;;;;;;12.84;60.78;95737.66;5072387;28;20716;-67
2021/10/21 07:38:39;;;;;;;1.97;0.87;;;;;;;12.84;60.73;95735.03;5067726;28;20609;-69
2021/10/21 07:41:05;;;;;;;1.47;0.77;;;;;;;12.91;60.53;95755.78;5057897;28;20170;-67
2021/10/21 07:43:33;;;;;;;2.73;0.50;;;;;;;12.95;60.13;95777.88;5067184;28;20185;-67
2021/10/21 07:45:59;;;;;;;0.83;0.60;;;;;;;12.99;59.72;95764.97;5072412;28;20213;-67
2021/10/21 07:48:24;;;;;;;1.93;0.80;;;;;;;13.13;59.73;95793.13;5068024;28;20193;-67
2021/10/21 07:50:50;;;;;;;1.87;0.70;;;;;;;13.18;59.57;95803.66;5056313;28;20174;-67
2021/10/21 07:53:16;;;;;;;0.97;0.70;;;;;;;13.03;58.80;95798.38;5052371;28;20261;-67
2021/10/21 07:55:41;;;;;;;1.90;1.03;;;;;;;13.49;69.63;95829.88;5057819;28;20261;-70
2021/10/21 07:58:07;;;;;;;0.90;0.43;;;;;;;13.45;58.87;95813.84;5060306;28;20202;-67
2021/10/21 08:00:32;;;;;;;1.93;0.60;;;;;;;13.13;58.57;95816.03;5064644;28;20173;-67
2021/10/21 08:02:59;;;;;;;2.40;0.60;;;;;;;13.18;58.74;95835.22;5055978;28;20163;-68
2021/10/21 08:05:27;;;;;;;2.57;0.80;;;;;;;13.36;57.82;95846.25;5065980;28;20208;-67
2021/10/21 08:07:53;;;;;;;2.57;0.67;;;;;;;13.46;57.63;95847.00;5076154;28;20188;-67
2021/10/21 08:10:19;;;;;;;1.23;0.67;;;;;;;13.65;57.23;95860.38;5069774;28;20174;-67
2021/10/21 08:12:46;;;;;;;1.60;0.40;;;;;;;13.69;56.91;95851.69;5066798;28;20228;-68
2021/10/21 08:15:12;;;;;;;1.80;0.70;;;;;;;13.66;56.82;95860.09;5057067;28;20292;-68
2021/10/21 08:17:39;;;;;;;1.50;0.50;;;;;;;13.55;56.62;95870.94;5056579;28;20307;-67
2021/10/21 08:20:06;;;;;;;1.27;0.60;;;;;;;13.80;56.85;95878.75;5055654;28;20165;-68
2021/10/21 08:22:32;;;;;;;0.73;0.40;;;;;;;13.73;56.21;95897.47;5055612;28;20249;-67
2021/10/21 08:24:58;;;;;;;1.50;0.67;;;;;;;13.60;56.42;95881.44;5057141;28;20205;-67
2021/10/21 08:27:24;;;;;;;0.97;0.60;;;;;;;13.59;56.00;95891.22;5057161;28;20228;-67
2021/10/21 08:29:51;;;;;;;1.17;0.67;;;;;;;13.77;55.70;95900.34;5062368;28;20549;-67
2021/10/21 08:32:17;;;;;;;3.30;0.60;;;;;;;13.74;55.75;95917.50;5058091;28;20528;-67
2021/10/21 08:34:43;;;;;;;0.83;0.53;;;;;;;13.60;55.39;95905.94;5059519;28;20216;-67
2021/10/21 08:37:09;;;;;;;0.67;0.40;;;;;;;13.83;56.13;95911.66;5065082;28;20209;-68
2021/10/21 08:39:37;;;;;;;2.00;0.40;;;;;;;13.85;55.58;95931.44;5055498;28;20684;-67
2021/10/21 08:42:07;;;;;;;0.43;0.40;;;;;;;13.86;55.72;95929.59;5058394;28;20301;-67
2021/10/21 08:44:39;;;;;;;0.53;0.40;;;;;;;13.79;55.62;95931.72;5069847;28;20204;-67
2021/10/21 08:47:08;;;;;;;0.93;0.60;;;;;;;13.62;56.17;95943.31;5075439;28;20653;-67
2021/10/21 08:49:38;;;;;;;1.57;0.60;;;;;;;13.51;56.32;95928.59;5069002;28;20201;-68
2021/10/21 08:52:04;;;;;;;1.80;0.50;;;;;;;13.71;56.56;95952.25;5065489;28;20281;-68
2021/10/21 08:54:30;;;;;;;0.40;0.40;;;;;;;13.79;56.28;95969.38;5073312;28;20205;-67
2021/10/21 08:56:56;;;;;;;0.40;0.40;;;;;;;13.63;56.78;95949.38;5072305;28;20236;-68
2021/10/21 08:59:22;;;;;;;1.83;0.40;;;;;;;13.48;58.05;95983.63;5064983;28;20182;-67
2021/10/21 09:01:51;;;;;;;3.20;0.40;;;;;;;13.42;60.50;95979.44;5066181;28;20257;-67
2021/10/21 09:09:26;;;;;;;1.20;0.40;;;;;;;12.74;62.13;96016.41;5070493;28;20541;-67
2021/10/21 09:12:05;;;;;;;0.50;0.50;;;;;;;13.11;61.34;96031.19;5057514;28;20200;-67
2021/10/21 09:14:38;;;;;;;1.00;0.50;;;;;;;13.08;61.54;96037.78;5059554;28;20201;-69
2021/10/21 09:17:05;;;;;;;0.53;0.50;;;;;;;12.94;62.37;96020.91;5064265;28;20538;-67
2021/10/21 09:19:31;;;;;;;1.03;0.43;;;;;;;13.13;61.86;96050.19;5065831;28;20256;-67
2021/10/21 09:21:57;;;;;;;0.40;0.40;;;;;;;13.11;61.53;96060.16;5063299;28;20261;-67
2021/10/21 09:24:31;;;;;;;0.50;0.50;;;;;;;13.00;62.13;96058.53;5063719;28;20204;-68
2021/10/21 09:27:04;;;;;;;0.40;0.40;;;;;;;13.11;62.49;96060.94;5061683;28;20181;-68
2021/10/21 09:29:31;;;;;;;0.70;0.60;;;;;;;13.25;62.71;96087.59;5065324;28;20583;-67
2021/10/21 09:32:13;;;;;;;0.83;0.40;;;;;;;13.13;62.76;96071.25;5065491;28;20173;-67
2021/10/21 09:35:02;;;;;;;0.77;0.50;;;;;;;13.16;62.66;96089.13;5069376;28;20578;-67
2021/10/21 09:37:31;;;;;;;0.40;0.40;;;;;;;13.35;62.80;96107.88;5060746;28;20336;-68
2021/10/21 09:40:00;;;;;;;0.50;0.50;;;;;;;13.31;62.42;96103.13;5058569;28;20173;-67
2021/10/21 09:42:37;;;;;;;0.67;0.40;;;;;;;13.30;62.92;96112.06;5064953;28;20188;-67
2021/10/21 09:45:18;;;;;;;3.70;0.60;;;;;;;13.55;62.44;96113.94;5069297;28;20201;-67
2021/10/21 09:47:45;;;;;;;2.27;0.50;;;;;;;13.40;61.33;96123.66;5065215;28;20224;-68
2021/10/21 09:50:46;;;;;;;0.37;0.37;;;;;;;13.10;61.24;96121.69;5065388;28;20593;-67
2021/10/21 09:53:18;;;;;;;0.40;0.40;;;;;;;12.90;60.70;96144.28;5067012;28;20176;-67
2021/10/21 09:55:48;;;;;;;0.83;0.50;;;;;;;12.53;60.79;96140.94;5063973;28;20653;-68
2021/10/21 09:58:18;;;;;;;0.40;0.40;;;;;;;12.18;61.76;96143.31;5055200;28;20205;-68
2021/10/21 10:00:44;;;;;;;0.40;0.40;;;;;;;12.22;60.76;96147.81;5060264;28;20178;-67
2021/10/21 10:03:19;;;;;;;0.40;0.40;;;;;;;12.35;60.08;96171.03;5070042;28;20174;-68
2021/10/21 10:05:47;;;;;;;1.13;0.60;;;;;;;12.46;60.38;96182.41;5062413;28;20208;-67
2021/10/21 10:08:14;;;;;;;0.73;0.37;;;;;;;12.37;58.64;96203.09;5069739;28;20195;-66
2021/10/21 10:10:43;;;;;;;1.87;0.40;;;;;;;12.41;58.15;96206.81;5059463;28;20174;-67
2021/10/21 10:13:10;;;;;;;0.43;0.43;;;;;;;12.36;58.14;96204.16;5054785;28;20375;-66
2021/10/21 10:15:37;;;;;;;0.40;0.40;;;;;;;12.35;56.74;96204.41;5071260;28;20193;-67
2021/10/21 10:18:13;;;;;;;0.40;0.40;;;;;;;12.43;56.76;96222.31;5067185;28;20193;-68
2021/10/21 10:20:39;;;;;;;1.63;0.43;;;;;;;12.53;56.57;96226.88;5062130;28;20184;-68
2021/10/21 10:23:09;;;;;;;1.67;0.40;;;;;;;12.63;56.16;96229.56;5063285;28;20174;-68
2021/10/21 10:25:44;;;;;;;0.97;0.50;;;;;;;12.79;55.92;96234.69;5063291;28;20197;-68
2021/10/21 10:28:10;;;;;;;0.40;0.40;;;;;;;12.51;55.28;96237.63;5056231;28;20252;-68
2021/10/21 10:30:50;;;;;;;0.83;0.47;;;;;;;12.63;56.01;96235.63;5066713;28;20300;-69
2021/10/21 10:33:43;;;;;;;1.57;0.70;;;;;;;12.75;55.54;96241.50;5071365;28;20173;-69
2021/10/21 10:36:29;;;;;;;0.63;0.50;;;;;;;12.60;55.48;96246.63;5063538;28;20572;-68
2021/10/21 10:39:03;;;;;;;5.13;0.90;;;;;;;12.75;56.03;96252.03;5062604;28;20185;-68
2021/10/21 10:41:41;;;;;;;4.70;1.30;;;;;;;13.10;56.45;96259.31;5064638;28;20177;-68
2021/10/21 10:44:27;;;;;;;1.53;0.40;;;;;;;13.10;55.95;96255.88;5061386;28;20979;-68
2021/10/21 10:46:53;;;;;;;0.40;0.40;;;;;;;13.21;55.72;96249.66;5041845;28;20194;-66
2021/10/21 10:49:37;;;;;;;0.50;0.50;;;;;;;13.37;55.73;96250.53;5071255;28;20260;-68
2021/10/21 10:52:09;;;;;;;1.27;0.50;;;;;;;13.31;56.03;96249.72;5066078;28;20235;-68
2021/10/21 10:54:47;;;;;;;3.60;0.80;;;;;;;13.29;55.66;96234.19;5061607;28;20203;-67
2021/10/21 10:57:18;;;;;;;1.90;0.70;;;;;;;13.33;54.96;96245.78;5058053;28;20328;-67
2021/10/21 10:59:45;;;;;;;3.10;0.60;;;;;;;13.36;53.53;96243.69;5062757;28;20188;-67
2021/10/21 11:02:26;;;;;;;0.97;0.40;;;;;;;13.51;54.19;96257.69;5064540;28;20173;-67
2021/10/21 11:04:52;;;;;;;1.07;0.50;;;;;;;13.63;53.96;96254.84;5061583;28;20197;-67
2021/10/21 11:07:24;;;;;;;1.20;0.50;;;;;;;13.82;53.59;96249.91;5065098;28;20227;-66
2021/10/21 11:09:52;;;;;;;0.67;0.53;;;;;;;14.01;53.28;96246.50;5057030;28;20180;-67
2021/10/21 11:12:26;;;;;;;0.70;0.50;;;;;;;13.85;53.56;96254.66;5066982;28;20170;-67
2021/10/21 11:14:55;;;;;;;1.57;0.70;;;;;;;13.61;54.17;96256.94;5065910;28;20193;-67
2021/10/21 11:17:41;;;;;;;0.93;0.40;;;;;;;13.89;53.69;96256.50;5058864;28;20226;-66
2021/10/21 11:20:27;;;;;;;2.37;0.73;;;;;;;13.44;53.66;96248.44;5063072;28;20279;-67
2021/10/21 11:23:27;;;;;;;1.70;0.80;;;;;;;13.39;53.10;96243.16;5055411;28;20185;-66
2021/10/21 11:25:56;;;;;;;2.20;0.53;;;;;;;13.17;53.14;96243.34;5052313;28;20731;-67
2021/10/21 11:28:34;;;;;;;0.70;0.70;;;;;;;13.11;52.03;96257.47;5058462;28;20173;-67
2021/10/21 11:31:01;;;;;;;1.83;0.60;;;;;;;13.15;51.56;96271.75;5070566;28;20169;-67
2021/10/21 11:33:26;;;;;;;2.10;0.90;;;;;;;13.37;52.02;96253.19;5066727;28;20256;-70
2021/10/21 11:35:57;;;;;;;2.57;0.70;;;;;;;13.44;51.76;96256.34;5073350;28;20292;-68